sensor_id;sensor_type;location;lat;lon;timestamp;pressure;altitude;pressure_sealevel;temperature;humidity
61345;BME280;47216;42.656;23.232;2023-03-23T00:00:53;93866.59;;;5.43;78.43
61345;BME280;47216;42.656;23.232;2023-03-23T00:03:20;93862.97;;;5.44;78.81
61345;BME280;47216;42.656;23.232;2023-03-23T00:05:47;93856.81;;;5.45;78.44
61345;BME280;47216;42.656;23.232;2023-03-23T00:08:17;93862.97;;;5.44;78.61
61345;BME280;47216;42.656;23.232;2023-03-23T00:10:49;93855.28;;;5.38;78.92
61345;BME280;47216;42.656;23.232;2023-03-23T00:13:18;93853.94;;;5.35;78.94
61345;BME280;47216;42.656;23.232;2023-03-23T00:15:45;93853.00;;;5.30;78.82
61345;BME280;47216;42.656;23.232;2023-03-23T00:18:14;93855.53;;;5.36;79.33
61345;BME280;47216;42.656;23.232;2023-03-23T00:20:47;93849.13;;;5.39;79.44
61345;BME280;47216;42.656;23.232;2023-03-23T00:23:14;93856.59;;;5.47;79.11
61345;BME280;47216;42.656;23.232;2023-03-23T00:25:45;93854.56;;;5.49;78.40
61345;BME280;47216;42.656;23.232;2023-03-23T00:28:13;93854.06;;;5.59;79.00
61345;BME280;47216;42.656;23.232;2023-03-23T00:45:10;93852.66;;;6.42;75.06
61345;BME280;47216;42.656;23.232;2023-03-23T00:47:37;93867.06;;;6.38;75.09
61345;BME280;47216;42.656;23.232;2023-03-23T00:50:04;93863.66;;;6.25;75.58
61345;BME280;47216;42.656;23.232;2023-03-23T00:52:31;93866.25;;;6.25;75.25
61345;BME280;47216;42.656;23.232;2023-03-23T00:54:58;93863.53;;;6.20;75.57
61345;BME280;47216;42.656;23.232;2023-03-23T00:57:25;93866.56;;;6.17;75.66
61345;BME280;47216;42.656;23.232;2023-03-23T00:59:51;93871.44;;;6.07;75.91
61345;BME280;47216;42.656;23.232;2023-03-23T01:02:20;93873.63;;;6.10;76.40
61345;BME280;47216;42.656;23.232;2023-03-23T01:04:49;93869.00;;;6.12;76.33
61345;BME280;47216;42.656;23.232;2023-03-23T01:07:17;93870.66;;;6.06;76.26
61345;BME280;47216;42.656;23.232;2023-03-23T01:09:44;93871.81;;;6.10;76.52
61345;BME280;47216;42.656;23.232;2023-03-23T01:12:11;93876.47;;;6.20;76.39
61345;BME280;47216;42.656;23.232;2023-03-23T01:14:38;93875.91;;;6.18;76.19
61345;BME280;47216;42.656;23.232;2023-03-23T01:17:05;93878.28;;;6.20;76.23
61345;BME280;47216;42.656;23.232;2023-03-23T01:19:33;93876.72;;;6.30;76.04
61345;BME280;47216;42.656;23.232;2023-03-23T01:22:00;93871.75;;;6.17;75.71
61345;BME280;47216;42.656;23.232;2023-03-23T01:24:27;93870.31;;;6.03;76.03
61345;BME280;47216;42.656;23.232;2023-03-23T01:26:53;93870.41;;;5.96;76.04
61345;BME280;47216;42.656;23.232;2023-03-23T01:29:20;93866.28;;;5.88;76.51
61345;BME280;47216;42.656;23.232;2023-03-23T01:31:47;93859.41;;;5.82;77.15
61345;BME280;47216;42.656;23.232;2023-03-23T01:34:13;93862.63;;;5.78;77.03
61345;BME280;47216;42.656;23.232;2023-03-23T01:36:42;93867.72;;;5.84;78.00
61345;BME280;47216;42.656;23.232;2023-03-23T01:39:08;93872.41;;;5.94;77.24
61345;BME280;47216;42.656;23.232;2023-03-23T01:41:35;93870.41;;;5.96;76.94
61345;BME280;47216;42.656;23.232;2023-03-23T01:44:04;93869.84;;;5.94;76.41
61345;BME280;47216;42.656;23.232;2023-03-23T01:46:33;93873.53;;;5.98;75.93
61345;BME280;47216;42.656;23.232;2023-03-23T01:49:03;93862.00;;;6.01;75.54
61345;BME280;47216;42.656;23.232;2023-03-23T01:51:36;93860.25;;;5.95;75.41
61345;BME280;47216;42.656;23.232;2023-03-23T01:54:07;93867.25;;;5.94;75.57
61345;BME280;47216;42.656;23.232;2023-03-23T01:56:40;93852.19;;;5.84;75.61
61345;BME280;47216;42.656;23.232;2023-03-23T01:59:11;93855.41;;;5.80;75.41
61345;BME280;47216;42.656;23.232;2023-03-23T02:01:39;93853.66;;;5.62;75.89
61345;BME280;47216;42.656;23.232;2023-03-23T02:04:11;93855.66;;;5.60;76.27
61345;BME280;47216;42.656;23.232;2023-03-23T02:06:40;93852.63;;;5.44;76.60
61345;BME280;47216;42.656;23.232;2023-03-23T02:09:08;93855.34;;;5.50;77.22
61345;BME280;47216;42.656;23.232;2023-03-23T02:11:35;93851.78;;;5.51;76.28
61345;BME280;47216;42.656;23.232;2023-03-23T02:14:02;93855.34;;;5.50;76.38
61345;BME280;47216;42.656;23.232;2023-03-23T02:16:34;93855.72;;;5.53;76.43
61345;BME280;47216;42.656;23.232;2023-03-23T02:25:04;93860.53;;;5.50;75.86
61345;BME280;47216;42.656;23.232;2023-03-23T02:30:40;93867.06;;;5.52;76.53
61345;BME280;47216;42.656;23.232;2023-03-23T02:36:12;93863.69;;;5.52;76.67
61345;BME280;47216;42.656;23.232;2023-03-23T02:38:44;93862.53;;;5.47;77.05
61345;BME280;47216;42.656;23.232;2023-03-23T02:41:22;93851.66;;;5.45;78.19
61345;BME280;47216;42.656;23.232;2023-03-23T02:43:50;93853.66;;;5.43;78.48
61345;BME280;47216;42.656;23.232;2023-03-23T02:46:19;93856.81;;;5.27;79.05
61345;BME280;47216;42.656;23.232;2023-03-23T02:48:50;93856.22;;;5.25;80.47
61345;BME280;47216;42.656;23.232;2023-03-23T02:51:22;93856.31;;;5.37;80.90
61345;BME280;47216;42.656;23.232;2023-03-23T02:53:51;93862.97;;;5.44;80.35
61345;BME280;47216;42.656;23.232;2023-03-23T02:56:22;93862.13;;;5.51;80.08
61345;BME280;47216;42.656;23.232;2023-03-23T02:58:49;93861.47;;;5.55;79.92
61345;BME280;47216;42.656;23.232;2023-03-23T03:01:48;93865.78;;;5.61;78.73
61345;BME280;47216;42.656;23.232;2023-03-23T03:04:19;93871.75;;;5.62;77.66
61345;BME280;47216;42.656;23.232;2023-03-23T03:06:58;93868.38;;;5.61;77.19
61345;BME280;47216;42.656;23.232;2023-03-23T03:09:32;93872.41;;;5.57;77.40
61345;BME280;47216;42.656;23.232;2023-03-23T03:12:07;93869.97;;;5.62;76.91
61345;BME280;47216;42.656;23.232;2023-03-23T03:14:38;93869.53;;;5.65;76.58
61345;BME280;47216;42.656;23.232;2023-03-23T03:17:11;93867.59;;;5.61;76.14
61345;BME280;47216;42.656;23.232;2023-03-23T03:19:47;93877.34;;;5.59;76.59
61345;BME280;47216;42.656;23.232;2023-03-23T03:22:16;93880.09;;;5.64;76.03
61345;BME280;47216;42.656;23.232;2023-03-23T03:24:47;93885.69;;;5.61;75.46
61345;BME280;47216;42.656;23.232;2023-03-23T03:27:18;93892.59;;;5.67;75.87
61345;BME280;47216;42.656;23.232;2023-03-23T03:29:53;93890.50;;;5.76;75.67
61345;BME280;47216;42.656;23.232;2023-03-23T03:32:24;93901.22;;;5.79;75.00
61345;BME280;47216;42.656;23.232;2023-03-23T03:34:54;93889.28;;;5.78;74.13
61345;BME280;47216;42.656;23.232;2023-03-23T03:37:21;93896.97;;;5.66;74.78
61345;BME280;47216;42.656;23.232;2023-03-23T03:39:48;93902.06;;;5.55;75.45
61345;BME280;47216;42.656;23.232;2023-03-23T03:42:16;93899.31;;;5.50;75.53
61345;BME280;47216;42.656;23.232;2023-03-23T03:44:43;93898.47;;;5.56;75.22
61345;BME280;47216;42.656;23.232;2023-03-23T03:47:09;93901.50;;;5.53;75.10
61345;BME280;47216;42.656;23.232;2023-03-23T03:49:36;93904.72;;;5.48;74.73
61345;BME280;47216;42.656;23.232;2023-03-23T03:52:04;93890.44;;;5.45;74.66
61345;BME280;47216;42.656;23.232;2023-03-23T03:54:31;93900.78;;;5.45;74.86
61345;BME280;47216;42.656;23.232;2023-03-23T03:56:58;93896.16;;;5.47;74.79
61345;BME280;47216;42.656;23.232;2023-03-23T03:59:24;93896.75;;;5.50;74.54
61345;BME280;47216;42.656;23.232;2023-03-23T04:01:52;93897.13;;;5.53;73.92
61345;BME280;47216;42.656;23.232;2023-03-23T04:04:20;93891.22;;;5.46;73.83
61345;BME280;47216;42.656;23.232;2023-03-23T04:06:47;93897.63;;;5.43;74.63
61345;BME280;47216;42.656;23.232;2023-03-23T04:09:15;93898.59;;;5.42;74.56
61345;BME280;47216;42.656;23.232;2023-03-23T04:11:42;93894.50;;;5.35;74.73
61345;BME280;47216;42.656;23.232;2023-03-23T04:14:09;93887.81;;;5.27;74.66
61345;BME280;47216;42.656;23.232;2023-03-23T04:16:36;93890.47;;;5.20;75.45
61345;BME280;47216;42.656;23.232;2023-03-23T04:19:03;93889.88;;;5.18;76.00
61345;BME280;47216;42.656;23.232;2023-03-23T04:21:30;93890.22;;;5.22;75.51
61345;BME280;47216;42.656;23.232;2023-03-23T04:23:57;93888.38;;;5.11;76.09
61345;BME280;47216;42.656;23.232;2023-03-23T04:26:27;93895.53;;;5.09;76.75
61345;BME280;47216;42.656;23.232;2023-03-23T04:28:55;93891.16;;;5.09;77.50
61345;BME280;47216;42.656;23.232;2023-03-23T04:31:22;93885.22;;;5.09;77.43
61345;BME280;47216;42.656;23.232;2023-03-23T04:33:49;93891.78;;;5.04;77.83
61345;BME280;47216;42.656;23.232;2023-03-23T04:36:18;93888.03;;;5.00;76.81
61345;BME280;47216;42.656;23.232;2023-03-23T04:38:45;93886.47;;;4.99;77.02
61345;BME280;47216;42.656;23.232;2023-03-23T04:41:12;93890.91;;;4.92;76.65
61345;BME280;47216;42.656;23.232;2023-03-23T04:43:40;93891.22;;;5.02;76.39
61345;BME280;47216;42.656;23.232;2023-03-23T04:46:08;93891.22;;;5.02;76.91
61345;BME280;47216;42.656;23.232;2023-03-23T04:48:35;93904.44;;;5.13;77.49
61345;BME280;47216;42.656;23.232;2023-03-23T04:51:05;93893.38;;;5.05;76.99
61345;BME280;47216;42.656;23.232;2023-03-23T04:53:32;93892.78;;;5.03;77.32
61345;BME280;47216;42.656;23.232;2023-03-23T04:55:59;93898.28;;;5.14;77.28
61345;BME280;47216;42.656;23.232;2023-03-23T04:58:27;93901.38;;;5.22;77.25
61345;BME280;47216;42.656;23.232;2023-03-23T05:00:56;93906.47;;;5.29;77.23
61345;BME280;47216;42.656;23.232;2023-03-23T05:03:23;93906.66;;;5.34;76.51
61345;BME280;47216;42.656;23.232;2023-03-23T05:05:50;93911.66;;;5.47;76.29
61345;BME280;47216;42.656;23.232;2023-03-23T05:08:19;93914.44;;;5.53;75.74
61345;BME280;47216;42.656;23.232;2023-03-23T05:10:52;93911.41;;;5.56;75.52
61345;BME280;47216;42.656;23.232;2023-03-23T05:13:19;93903.13;;;5.47;74.75
61345;BME280;47216;42.656;23.232;2023-03-23T05:15:47;93917.75;;;5.60;75.11
61345;BME280;47216;42.656;23.232;2023-03-23T05:18:15;93930.09;;;5.58;74.99
61345;BME280;47216;42.656;23.232;2023-03-23T05:20:42;93923.06;;;5.65;74.41
61345;BME280;47216;42.656;23.232;2023-03-23T05:23:12;93930.72;;;6.15;83.50
61345;BME280;47216;42.656;23.232;2023-03-23T05:25:39;93924.94;;;6.31;80.17
61345;BME280;47216;42.656;23.232;2023-03-23T05:28:07;93929.56;;;6.11;76.75
61345;BME280;47216;42.656;23.232;2023-03-23T05:30:34;93926.91;;;5.99;75.95
61345;BME280;47216;42.656;23.232;2023-03-23T05:33:01;93934.00;;;5.85;75.38
61345;BME280;47216;42.656;23.232;2023-03-23T05:35:31;93939.88;;;5.74;75.33
61345;BME280;47216;42.656;23.232;2023-03-23T05:37:57;93946.97;;;5.60;75.88
61345;BME280;47216;42.656;23.232;2023-03-23T05:40:25;93940.41;;;5.39;76.53
61345;BME280;47216;42.656;23.232;2023-03-23T05:42:53;93940.25;;;5.34;76.41
61345;BME280;47216;42.656;23.232;2023-03-23T05:45:21;93942.91;;;5.28;76.95
61345;BME280;47216;42.656;23.232;2023-03-23T05:47:48;93949.44;;;5.30;77.79
61345;BME280;47216;42.656;23.232;2023-03-23T05:50:15;93949.97;;;5.39;77.94
61345;BME280;47216;42.656;23.232;2023-03-23T05:52:44;93953.34;;;5.39;77.75
61345;BME280;47216;42.656;23.232;2023-03-23T05:55:11;93962.03;;;5.45;78.07
61345;BME280;47216;42.656;23.232;2023-03-23T05:57:39;93951.72;;;5.38;78.10
61345;BME280;47216;42.656;23.232;2023-03-23T06:00:07;93959.25;;;5.46;77.98
61345;BME280;47216;42.656;23.232;2023-03-23T06:02:46;93960.81;;;5.47;78.48
61345;BME280;47216;42.656;23.232;2023-03-23T06:05:13;93959.19;;;5.53;77.94
61345;BME280;47216;42.656;23.232;2023-03-23T06:07:41;93956.31;;;5.61;78.07
61345;BME280;47216;42.656;23.232;2023-03-23T06:10:10;93961.56;;;5.55;78.41
61345;BME280;47216;42.656;23.232;2023-03-23T06:12:37;93965.03;;;5.67;78.08
61345;BME280;47216;42.656;23.232;2023-03-23T06:15:05;93960.56;;;5.74;78.32
61345;BME280;47216;42.656;23.232;2023-03-23T06:17:32;93968.34;;;5.93;78.20
61345;BME280;47216;42.656;23.232;2023-03-23T06:19:59;93960.16;;;5.96;78.42
61345;BME280;47216;42.656;23.232;2023-03-23T06:22:26;93966.22;;;6.08;79.37
61345;BME280;47216;42.656;23.232;2023-03-23T06:24:53;93953.34;;;6.20;79.92
61345;BME280;47216;42.656;23.232;2023-03-23T06:27:23;93959.03;;;6.28;80.03
61345;BME280;47216;42.656;23.232;2023-03-23T06:29:50;93951.50;;;6.57;79.32
61345;BME280;47216;42.656;23.232;2023-03-23T06:32:17;93954.47;;;6.72;79.19
61345;BME280;47216;42.656;23.232;2023-03-23T06:34:44;93953.28;;;6.87;79.41
61345;BME280;47216;42.656;23.232;2023-03-23T06:37:12;93947.75;;;6.95;79.12
61345;BME280;47216;42.656;23.232;2023-03-23T06:39:41;93946.81;;;7.20;78.54
61345;BME280;47216;42.656;23.232;2023-03-23T06:42:09;93951.78;;;7.33;78.32
61345;BME280;47216;42.656;23.232;2023-03-23T06:44:38;93956.31;;;7.49;78.11
61345;BME280;47216;42.656;23.232;2023-03-23T06:47:04;93955.19;;;7.69;77.63
61345;BME280;47216;42.656;23.232;2023-03-23T06:49:33;93951.31;;;7.83;77.81
61345;BME280;47216;42.656;23.232;2023-03-23T06:51:59;93960.00;;;8.00;77.20
61345;BME280;47216;42.656;23.232;2023-03-23T06:54:27;93951.28;;;8.18;76.61
61345;BME280;47216;42.656;23.232;2023-03-23T06:56:54;93955.00;;;8.23;78.23
61345;BME280;47216;42.656;23.232;2023-03-23T06:59:21;93956.22;;;8.44;77.41
61345;BME280;47216;42.656;23.232;2023-03-23T07:01:49;93964.28;;;8.59;76.96
61345;BME280;47216;42.656;23.232;2023-03-23T07:04:16;93963.78;;;8.74;76.79
61345;BME280;47216;42.656;23.232;2023-03-23T07:06:42;93959.31;;;8.86;75.90
61345;BME280;47216;42.656;23.232;2023-03-23T07:09:09;93959.03;;;8.99;76.01
61345;BME280;47216;42.656;23.232;2023-03-23T07:11:36;93964.25;;;9.16;75.50
61345;BME280;47216;42.656;23.232;2023-03-23T07:14:03;93966.47;;;9.24;75.14
61345;BME280;47216;42.656;23.232;2023-03-23T07:16:30;93966.16;;;9.21;73.47
61345;BME280;47216;42.656;23.232;2023-03-23T07:18:59;93972.78;;;9.29;73.73
61345;BME280;47216;42.656;23.232;2023-03-23T07:21:26;93966.47;;;9.24;74.52
61345;BME280;47216;42.656;23.232;2023-03-23T07:23:52;93975.00;;;9.37;74.07
61345;BME280;47216;42.656;23.232;2023-03-23T07:26:19;93970.25;;;9.51;73.01
61345;BME280;47216;42.656;23.232;2023-03-23T07:28:46;93970.75;;;9.48;73.07
61345;BME280;47216;42.656;23.232;2023-03-23T07:31:13;93969.00;;;9.53;73.63
61345;BME280;47216;42.656;23.232;2023-03-23T07:33:40;93966.63;;;9.68;72.71
61345;BME280;47216;42.656;23.232;2023-03-23T07:36:09;93977.59;;;9.71;73.36
61345;BME280;47216;42.656;23.232;2023-03-23T07:38:36;93975.13;;;9.81;72.74
61345;BME280;47216;42.656;23.232;2023-03-23T07:41:04;93973.56;;;9.80;71.54
61345;BME280;47216;42.656;23.232;2023-03-23T07:43:31;93981.44;;;9.85;71.06
61345;BME280;47216;42.656;23.232;2023-03-23T07:45:58;93980.88;;;9.83;72.06
61345;BME280;47216;42.656;23.232;2023-03-23T07:48:25;93986.56;;;9.97;71.61
61345;BME280;47216;42.656;23.232;2023-03-23T07:50:52;93982.81;;;10.09;71.31
61345;BME280;47216;42.656;23.232;2023-03-23T07:53:20;93985.06;;;10.23;72.55
61345;BME280;47216;42.656;23.232;2023-03-23T07:55:49;93985.78;;;10.35;72.10
61345;BME280;47216;42.656;23.232;2023-03-23T07:58:16;93986.94;;;10.44;70.25
61345;BME280;47216;42.656;23.232;2023-03-23T08:00:45;93992.69;;;10.46;70.32
61345;BME280;47216;42.656;23.232;2023-03-23T08:03:14;93992.81;;;10.57;69.89
61345;BME280;47216;42.656;23.232;2023-03-23T08:05:40;93990.03;;;10.63;70.14
61345;BME280;47216;42.656;23.232;2023-03-23T08:08:08;93991.81;;;10.63;69.68
61345;BME280;47216;42.656;23.232;2023-03-23T08:10:37;93993.53;;;10.74;68.96
61345;BME280;47216;42.656;23.232;2023-03-23T08:13:04;93987.88;;;10.82;68.71
61345;BME280;47216;42.656;23.232;2023-03-23T08:15:32;93993.59;;;10.79;68.77
61345;BME280;47216;42.656;23.232;2023-03-23T08:18:00;93996.81;;;10.86;69.67
61345;BME280;47216;42.656;23.232;2023-03-23T08:20:27;93996.13;;;10.96;68.43
61345;BME280;47216;42.656;23.232;2023-03-23T08:22:55;93988.25;;;10.91;68.31
61345;BME280;47216;42.656;23.232;2023-03-23T08:25:24;93991.28;;;11.10;67.00
61345;BME280;47216;42.656;23.232;2023-03-23T08:27:53;93987.78;;;11.26;66.21
61345;BME280;47216;42.656;23.232;2023-03-23T08:30:21;93985.38;;;11.20;65.68
61345;BME280;47216;42.656;23.232;2023-03-23T08:32:50;93987.81;;;11.31;66.35
61345;BME280;47216;42.656;23.232;2023-03-23T08:35:18;93981.78;;;11.26;66.41
61345;BME280;47216;42.656;23.232;2023-03-23T08:37:46;93988.97;;;11.46;65.64
61345;BME280;47216;42.656;23.232;2023-03-23T08:40:17;93980.19;;;11.57;64.45
61345;BME280;47216;42.656;23.232;2023-03-23T08:42:45;93971.31;;;11.53;64.47
61345;BME280;47216;42.656;23.232;2023-03-23T08:45:17;93980.75;;;11.64;63.82
61345;BME280;47216;42.656;23.232;2023-03-23T08:47:44;93981.56;;;11.65;59.94
61345;BME280;47216;42.656;23.232;2023-03-23T08:50:14;93959.34;;;11.62;59.65
61345;BME280;47216;42.656;23.232;2023-03-23T08:52:41;93983.19;;;11.76;59.88
61345;BME280;47216;42.656;23.232;2023-03-23T08:55:09;93982.03;;;11.89;56.83
61345;BME280;47216;42.656;23.232;2023-03-23T08:57:37;93979.44;;;11.94;57.31
61345;BME280;47216;42.656;23.232;2023-03-23T09:00:05;93973.00;;;12.07;56.71
61345;BME280;47216;42.656;23.232;2023-03-23T09:02:40;93975.00;;;11.94;57.51
61345;BME280;47216;42.656;23.232;2023-03-23T09:05:08;93977.91;;;12.03;58.28
61345;BME280;47216;42.656;23.232;2023-03-23T09:07:37;93979.56;;;12.19;57.11
61345;BME280;47216;42.656;23.232;2023-03-23T09:10:04;93972.25;;;12.16;57.52
61345;BME280;47216;42.656;23.232;2023-03-23T09:12:31;93974.09;;;12.21;56.79
61345;BME280;47216;42.656;23.232;2023-03-23T09:14:58;93975.72;;;12.32;57.05
61345;BME280;47216;42.656;23.232;2023-03-23T09:17:24;93976.50;;;12.28;56.96
61345;BME280;47216;42.656;23.232;2023-03-23T09:19:53;93974.66;;;12.28;57.32
61345;BME280;47216;42.656;23.232;2023-03-23T09:22:19;93973.97;;;12.48;56.92
61345;BME280;47216;42.656;23.232;2023-03-23T09:24:49;93965.63;;;12.56;55.92
61345;BME280;47216;42.656;23.232;2023-03-23T09:27:16;93969.03;;;12.57;55.48
61345;BME280;47216;42.656;23.232;2023-03-23T09:29:44;93972.47;;;12.68;55.65
61345;BME280;47216;42.656;23.232;2023-03-23T09:32:14;93967.53;;;12.81;55.00
61345;BME280;47216;42.656;23.232;2023-03-23T09:34:41;93967.28;;;12.78;54.47
61345;BME280;47216;42.656;23.232;2023-03-23T09:37:09;93959.69;;;12.81;54.71
61345;BME280;47216;42.656;23.232;2023-03-23T09:39:38;93959.97;;;12.90;53.78
61345;BME280;47216;42.656;23.232;2023-03-23T09:42:14;93959.97;;;13.00;54.73
61345;BME280;47216;42.656;23.232;2023-03-23T09:44:57;93952.69;;;13.13;53.86
61345;BME280;47216;42.656;23.232;2023-03-23T09:47:37;93954.78;;;13.21;54.17
61345;BME280;47216;42.656;23.232;2023-03-23T09:50:11;93954.03;;;13.31;54.25
61345;BME280;47216;42.656;23.232;2023-03-23T09:52:43;93950.63;;;13.40;53.85
61345;BME280;47216;42.656;23.232;2023-03-23T09:55:13;93958.22;;;13.52;52.69
61345;BME280;47216;42.656;23.232;2023-03-23T09:57:57;93952.22;;;13.52;52.30
61345;BME280;47216;42.656;23.232;2023-03-23T10:00:30;93942.78;;;13.45;53.04
61345;BME280;47216;42.656;23.232;2023-03-23T10:03:02;93951.13;;;13.63;53.05
61345;BME280;47216;42.656;23.232;2023-03-23T10:05:33;93948.25;;;13.75;52.52
61345;BME280;47216;42.656;23.232;2023-03-23T10:08:09;93949.53;;;13.87;51.24
61345;BME280;47216;42.656;23.232;2023-03-23T10:10:46;93943.28;;;13.78;51.13
61345;BME280;47216;42.656;23.232;2023-03-23T10:13:24;93946.16;;;13.66;51.36
61345;BME280;47216;42.656;23.232;2023-03-23T10:15:57;93941.44;;;13.69;51.29
61345;BME280;47216;42.656;23.232;2023-03-23T10:18:36;93923.41;;;13.31;51.36
61345;BME280;47216;42.656;23.232;2023-03-23T10:21:04;93938.03;;;13.63;51.27
61345;BME280;47216;42.656;23.232;2023-03-23T10:23:44;93938.03;;;13.63;51.78
61345;BME280;47216;42.656;23.232;2023-03-23T10:26:24;93934.88;;;13.76;51.18
61345;BME280;47216;42.656;23.232;2023-03-23T10:28:55;93941.19;;;13.80;51.50
61345;BME280;47216;42.656;23.232;2023-03-23T10:31:32;93933.56;;;13.79;51.49
61345;BME280;47216;42.656;23.232;2023-03-23T10:34:04;93934.88;;;13.92;51.57
61345;BME280;47216;42.656;23.232;2023-03-23T10:36:38;93936.94;;;14.05;51.16
61345;BME280;47216;42.656;23.232;2023-03-23T10:39:11;93942.69;;;14.02;51.07
61345;BME280;47216;42.656;23.232;2023-03-23T10:41:39;93940.06;;;14.07;50.80
61345;BME280;47216;42.656;23.232;2023-03-23T10:44:10;93944.25;;;14.13;50.66
61345;BME280;47216;42.656;23.232;2023-03-23T10:46:43;93937.75;;;14.00;50.69
61345;BME280;47216;42.656;23.232;2023-03-23T10:49:22;93939.00;;;14.23;50.57
61345;BME280;47216;42.656;23.232;2023-03-23T10:51:56;93931.59;;;14.36;50.89
61345;BME280;47216;42.656;23.232;2023-03-23T10:54:32;93926.84;;;14.43;47.77
61345;BME280;47216;42.656;23.232;2023-03-23T10:57:12;93917.94;;;14.39;49.32
61345;BME280;47216;42.656;23.232;2023-03-23T10:59:40;93921.59;;;14.43;48.91
61345;BME280;47216;42.656;23.232;2023-03-23T11:02:14;93927.84;;;14.57;49.15
61345;BME280;47216;42.656;23.232;2023-03-23T11:04:45;93934.41;;;14.55;50.24
61345;BME280;47216;42.656;23.232;2023-03-23T11:07:27;93930.88;;;14.80;49.36
61345;BME280;47216;42.656;23.232;2023-03-23T11:10:03;93924.56;;;14.86;48.71
61345;BME280;47216;42.656;23.232;2023-03-23T11:12:33;93930.34;;;14.83;49.20
61345;BME280;47216;42.656;23.232;2023-03-23T11:15:14;93922.44;;;14.88;51.37
61345;BME280;47216;42.656;23.232;2023-03-23T11:17:43;93916.19;;;14.79;48.08
61345;BME280;47216;42.656;23.232;2023-03-23T11:20:11;93904.91;;;14.78;48.41
61345;BME280;47216;42.656;23.232;2023-03-23T11:22:38;93908.97;;;15.00;49.65
61345;BME280;47216;42.656;23.232;2023-03-23T11:25:12;93908.66;;;15.06;48.57
61345;BME280;47216;42.656;23.232;2023-03-23T11:27:40;93918.69;;;14.99;47.44
61345;BME280;47216;42.656;23.232;2023-03-23T11:30:10;93908.66;;;15.06;47.58
61345;BME280;47216;42.656;23.232;2023-03-23T11:32:42;93893.88;;;15.16;48.00
61345;BME280;47216;42.656;23.232;2023-03-23T11:35:19;93890.44;;;15.20;46.83
61345;BME280;47216;42.656;23.232;2023-03-23T11:37:49;93895.88;;;15.29;47.23
61345;BME280;47216;42.656;23.232;2023-03-23T11:40:21;93880.59;;;15.36;47.64
61345;BME280;47216;42.656;23.232;2023-03-23T11:42:57;93886.44;;;15.57;50.43
61345;BME280;47216;42.656;23.232;2023-03-23T11:45:26;93877.72;;;15.62;47.06
61345;BME280;47216;42.656;23.232;2023-03-23T11:48:03;93878.28;;;15.59;47.03
61345;BME280;47216;42.656;23.232;2023-03-23T11:50:45;93868.03;;;15.62;47.26
61345;BME280;47216;42.656;23.232;2023-03-23T11:53:21;93874.09;;;15.58;46.37
61345;BME280;47216;42.656;23.232;2023-03-23T11:56:00;93874.06;;;15.63;46.29
61345;BME280;47216;42.656;23.232;2023-03-23T11:58:28;93865.03;;;15.74;46.10
61345;BME280;47216;42.656;23.232;2023-03-23T12:01:02;93866.53;;;15.80;45.32
61345;BME280;47216;42.656;23.232;2023-03-23T12:03:51;93865.03;;;15.74;46.68
61345;BME280;47216;42.656;23.232;2023-03-23T12:06:29;93865.25;;;15.78;46.51
61345;BME280;47216;42.656;23.232;2023-03-23T12:09:05;93861.25;;;15.85;46.04
61345;BME280;47216;42.656;23.232;2023-03-23T12:11:39;93861.00;;;15.82;46.36
61345;BME280;47216;42.656;23.232;2023-03-23T12:14:16;93861.25;;;15.85;46.15
61345;BME280;47216;42.656;23.232;2023-03-23T12:16:53;93862.34;;;15.79;45.55
61345;BME280;47216;42.656;23.232;2023-03-23T12:19:30;93860.16;;;15.86;45.11
61345;BME280;47216;42.656;23.232;2023-03-23T12:22:13;93857.97;;;15.93;44.65
61345;BME280;47216;42.656;23.232;2023-03-23T12:24:52;93861.97;;;15.91;44.83
61345;BME280;47216;42.656;23.232;2023-03-23T12:27:28;93860.09;;;15.91;45.38
61345;BME280;47216;42.656;23.232;2023-03-23T12:30:09;93859.66;;;15.84;44.29
61345;BME280;47216;42.656;23.232;2023-03-23T12:32:47;93854.84;;;15.91;43.77
61345;BME280;47216;42.656;23.232;2023-03-23T12:35:30;93860.53;;;15.99;45.57
61345;BME280;47216;42.656;23.232;2023-03-23T12:38:10;93856.75;;;16.10;44.98
61345;BME280;47216;42.656;23.232;2023-03-23T12:40:58;93848.16;;;16.23;45.24
61345;BME280;47216;42.656;23.232;2023-03-23T12:43:33;93842.00;;;16.33;44.74
61345;BME280;47216;42.656;23.232;2023-03-23T12:49:10;93852.06;;;16.50;44.57
61345;BME280;47216;42.656;23.232;2023-03-23T12:51:42;93852.53;;;16.52;43.47
61345;BME280;47216;42.656;23.232;2023-03-23T12:54:13;93854.69;;;16.50;43.86
61345;BME280;47216;42.656;23.232;2023-03-23T12:56:47;93848.28;;;16.56;43.84
61345;BME280;47216;42.656;23.232;2023-03-23T12:59:21;93837.31;;;16.68;43.62
61345;BME280;47216;42.656;23.232;2023-03-23T13:01:52;93836.69;;;16.76;43.78
61345;BME280;47216;42.656;23.232;2023-03-23T13:04:23;93834.00;;;16.81;43.58
61345;BME280;47216;42.656;23.232;2023-03-23T13:06:53;93827.94;;;16.80;43.35
61345;BME280;47216;42.656;23.232;2023-03-23T13:09:24;93831.63;;;16.79;44.38
61345;BME280;47216;42.656;23.232;2023-03-23T13:11:54;93828.50;;;16.77;43.01
61345;BME280;47216;42.656;23.232;2023-03-23T13:14:33;93838.41;;;16.86;42.81
61345;BME280;47216;42.656;23.232;2023-03-23T13:17:08;93825.94;;;16.91;42.85
61345;BME280;47216;42.656;23.232;2023-03-23T13:19:51;93834.81;;;16.95;42.77
61345;BME280;47216;42.656;23.232;2023-03-23T13:22:25;93826.66;;;16.97;42.88
61345;BME280;47216;42.656;23.232;2023-03-23T13:25:02;93823.94;;;17.02;42.41
61345;BME280;47216;42.656;23.232;2023-03-23T13:27:30;93824.34;;;17.09;42.23
61345;BME280;47216;42.656;23.232;2023-03-23T13:29:58;93814.06;;;17.27;42.03
61345;BME280;47216;42.656;23.232;2023-03-23T13:32:33;93815.31;;;17.29;41.55
61345;BME280;47216;42.656;23.232;2023-03-23T13:35:00;93814.63;;;17.37;41.13
61345;BME280;47216;42.656;23.232;2023-03-23T13:37:28;93815.97;;;17.54;41.72
61345;BME280;47216;42.656;23.232;2023-03-23T13:39:57;93802.56;;;17.64;41.52